createdAt,value
2019-02-05T00:12:55.429Z,8.33
2019-02-05T00:16:59.971Z,5.53
2019-02-05T00:21:04.499Z,7.72
2019-02-05T00:25:09.534Z,7.22
2019-02-05T00:37:18.680Z,8.90
2019-02-05T00:51:47.185Z,9.10
2019-02-05T01:22:23.916Z,10.63
2019-02-05T02:00:42.160Z,12.45
2019-02-05T02:04:46.726Z,11.83
2019-02-05T02:08:51.259Z,10.70
2019-02-05T02:12:55.821Z,14.03
2019-02-05T02:17:00.366Z,11.55
2019-02-05T02:21:05.320Z,12.58
2019-02-05T02:25:10.511Z,11.78
2019-02-05T02:37:22.152Z,11.65
2019-02-05T03:02:13.211Z,13.43
2019-02-05T03:06:17.788Z,12.85
2019-02-05T03:14:23.501Z,12.35
2019-02-05T03:18:28.039Z,11.90
2019-02-05T03:30:40.269Z,12.60
2019-02-05T03:38:11.987Z,13.38
2019-02-05T03:42:16.487Z,13.50
2019-02-05T03:46:21.731Z,14.60
2019-02-05T04:18:05.452Z,18.82
2019-02-05T04:22:41.330Z,18.40
2019-02-05T04:27:28.780Z,18.45
2019-02-05T04:31:45.588Z,19.40
2019-02-05T04:36:21.543Z,20.60
2019-02-05T04:40:47.435Z,21.85
2019-02-05T04:53:51.432Z,23.77
2019-02-05T04:58:16.371Z,22.17
2019-02-05T05:02:58.848Z,23.05
2019-02-05T05:07:29.111Z,22.73
2019-02-05T05:42:45.972Z,31.02
2019-02-05T05:46:50.560Z,29.00
2019-02-05T06:55:10.203Z,41.25
2019-02-05T06:59:14.741Z,41.08
2019-02-05T07:03:19.280Z,42.90
2019-02-05T07:08:42.808Z,42.03
2019-02-05T07:12:47.362Z,48.47
2019-02-05T07:24:27.914Z,44.75
2019-02-05T07:32:37.939Z,45.12
2019-02-05T07:36:42.440Z,45.43
2019-02-05T07:43:43.635Z,43.78
2019-02-05T07:47:48.395Z,44.15
2019-02-05T07:51:52.912Z,41.42
2019-02-05T07:58:08.563Z,36.77
2019-02-05T08:02:13.115Z,42.17
2019-02-05T08:06:18.088Z,40.30
2019-02-05T08:10:23.167Z,36.40
2019-02-05T08:14:28.182Z,39.27
2019-02-05T08:18:32.685Z,37.65
2019-02-05T08:22:37.557Z,34.48
2019-02-05T08:26:42.090Z,34.20
2019-02-05T08:33:51.717Z,35.55
2019-02-05T08:37:56.253Z,34.57
2019-02-05T08:42:00.797Z,32.58
2019-02-05T08:46:05.350Z,34.43
2019-02-05T08:50:13.009Z,32.80
2019-02-05T08:54:17.552Z,36.33
2019-02-05T08:58:30.521Z,35.28
2019-02-05T09:02:28.327Z,33.13
2019-02-05T09:06:35.418Z,31.82
2019-02-05T09:10:39.415Z,29.60
2019-02-05T09:23:43.584Z,30.05
2019-02-05T09:27:48.368Z,30.00
2019-02-05T09:31:52.868Z,29.45
2019-02-05T09:35:57.423Z,30.45
2019-02-05T09:41:58.885Z,28.85
2019-02-05T09:49:51.889Z,28.73
2019-02-05T09:56:54.394Z,67.03
2019-02-05T10:01:30.692Z,28.85
2019-02-05T10:05:35.558Z,29.17
2019-02-05T10:09:40.142Z,28.60
2019-02-05T10:17:46.323Z,28.55
2019-02-05T10:21:50.864Z,28.67
2019-02-05T10:25:55.409Z,30.48
2019-02-05T10:33:36.724Z,27.80
2019-02-05T10:37:41.256Z,29.70
2019-02-05T10:42:27.498Z,25.65
2019-02-05T10:46:32.031Z,26.50
2019-02-05T10:50:36.608Z,25.82
2019-02-05T10:54:41.152Z,26.48
2019-02-05T10:59:54.398Z,23.27
2019-02-05T11:03:59.266Z,23.20
2019-02-05T11:08:03.807Z,27.73
2019-02-05T11:15:30.098Z,26.80
2019-02-05T11:19:34.639Z,25.52
2019-02-05T11:23:39.199Z,22.15
2019-02-05T11:27:45.768Z,23.70
2019-02-05T11:31:49.949Z,22.65
2019-02-05T11:35:54.849Z,22.73
2019-02-05T11:41:21.792Z,25.15
2019-02-05T11:47:03.980Z,23.77
2019-02-05T11:55:07.122Z,26.70
2019-02-05T11:59:11.765Z,28.43
2019-02-05T12:07:31.558Z,30.75
2019-02-05T12:11:36.055Z,29.65
2019-02-05T12:15:40.601Z,29.90
2019-02-05T12:19:45.132Z,29.60
2019-02-05T12:23:49.701Z,30.10
2019-02-05T12:27:54.770Z,30.70
2019-02-05T12:31:59.297Z,28.75
2019-02-05T12:36:03.954Z,30.02
2019-02-05T12:40:09.871Z,27.80
2019-02-05T12:44:14.520Z,31.97
2019-02-05T12:48:19.071Z,30.23
2019-02-05T12:52:23.892Z,31.68
2019-02-05T12:56:28.496Z,30.77
2019-02-05T13:00:38.365Z,31.93
2019-02-05T13:04:42.892Z,29.13
2019-02-05T13:08:47.485Z,29.87
2019-02-05T13:12:52.987Z,34.05
2019-02-05T13:16:57.527Z,40.25
2019-02-05T13:21:02.095Z,32.17
2019-02-05T13:25:09.862Z,28.93
2019-02-05T13:29:14.420Z,32.40
2019-02-05T13:33:18.958Z,29.37
2019-02-05T13:37:23.504Z,41.25
2019-02-05T13:41:29.210Z,29.32
2019-02-05T13:45:35.119Z,29.57
2019-02-05T13:49:39.685Z,32.23
2019-02-05T13:53:44.260Z,29.37
2019-02-05T13:57:49.229Z,33.23
2019-02-05T14:01:53.771Z,31.30
2019-02-05T14:05:58.342Z,31.23
2019-02-05T14:10:02.971Z,29.48
2019-02-05T14:14:07.476Z,28.53
2019-02-05T14:18:12.179Z,27.20
2019-02-05T14:22:17.339Z,28.60
2019-02-05T14:26:21.905Z,32.40
2019-02-05T14:30:47.305Z,27.95
2019-02-05T14:34:51.866Z,27.27
2019-02-05T14:38:56.439Z,27.65
2019-02-05T14:43:01.104Z,27.27
2019-02-05T14:47:06.159Z,28.85
2019-02-05T14:51:10.709Z,29.43
2019-02-05T14:55:15.251Z,24.80
2019-02-05T14:59:19.827Z,27.52
2019-02-05T15:03:24.804Z,27.35
2019-02-05T15:07:29.349Z,25.70
2019-02-05T15:11:33.918Z,25.65
2019-02-05T15:19:09.291Z,28.07
2019-02-05T15:23:13.862Z,29.60
2019-02-05T15:27:18.403Z,25.35
2019-02-05T15:31:22.915Z,24.57
2019-02-05T15:35:27.759Z,25.37
2019-02-05T15:39:32.330Z,25.08
2019-02-05T15:43:36.867Z,24.60
2019-02-05T15:47:41.407Z,26.77
2019-02-05T15:51:45.894Z,25.52
2019-02-05T15:55:50.556Z,24.50
2019-02-05T15:59:55.111Z,23.75
2019-02-05T16:03:59.768Z,25.62
2019-02-05T16:08:04.404Z,26.27
2019-02-05T16:12:08.934Z,24.70
2019-02-05T16:16:13.484Z,27.10
2019-02-05T17:28:26.269Z,26.35
2019-02-05T17:32:39.917Z,25.37
2019-02-05T18:05:40.942Z,23.00
2019-02-05T18:22:15.495Z,23.55
2019-02-05T18:43:53.115Z,25.62
2019-02-05T18:47:57.669Z,24.70
2019-02-05T18:52:10.555Z,21.57
2019-02-05T19:10:32.984Z,23.30
2019-02-05T19:14:37.528Z,23.65
2019-02-05T19:18:42.076Z,20.62
2019-02-05T19:22:46.612Z,22.35
2019-02-05T20:06:03.063Z,25.00
2019-02-05T20:10:08.699Z,28.67
2019-02-05T20:14:13.242Z,25.57
2019-02-05T20:18:17.766Z,28.92
2019-02-05T21:13:05.476Z,29.63
2019-02-05T21:17:10.039Z,31.25
2019-02-05T21:21:14.580Z,31.85
2019-02-05T21:25:21.127Z,30.73
2019-02-05T21:29:25.671Z,32.28
2019-02-05T21:33:30.296Z,35.40
2019-02-05T21:37:34.836Z,32.97
2019-02-05T21:41:39.487Z,31.87
2019-02-05T21:45:44.015Z,33.30
2019-02-05T21:56:58.541Z,35.03
2019-02-05T22:01:03.320Z,39.08
2019-02-05T22:05:09.889Z,37.60
2019-02-05T22:27:34.789Z,45.75
